sensor_id;sensor_type;location;lat;lon;timestamp;P1;durP1;ratioP1;P2;durP2;ratioP2
68479;SDS011;55469;48.934;12.050;2022-08-25T00:01:42;4.55;;;4.15;;
68479;SDS011;55469;48.934;12.050;2022-08-25T00:04:12;5.97;;;4.72;;
68479;SDS011;55469;48.934;12.050;2022-08-25T00:06:40;4.93;;;4.15;;
68479;SDS011;55469;48.934;12.050;2022-08-25T00:09:09;4.57;;;4.07;;
68479;SDS011;55469;48.934;12.050;2022-08-25T00:11:38;5.15;;;4.60;;
68479;SDS011;55469;48.934;12.050;2022-08-25T00:14:07;4.85;;;4.22;;
68479;SDS011;55469;48.934;12.050;2022-08-25T00:16:39;4.88;;;4.20;;
68479;SDS011;55469;48.934;12.050;2022-08-25T00:19:07;5.13;;;4.13;;
68479;SDS011;55469;48.934;12.050;2022-08-25T00:21:36;4.93;;;4.43;;
68479;SDS011;55469;48.934;12.050;2022-08-25T00:24:05;4.60;;;4.03;;
68479;SDS011;55469;48.934;12.050;2022-08-25T00:26:32;5.70;;;4.60;;
68479;SDS011;55469;48.934;12.050;2022-08-25T00:28:58;5.30;;;4.53;;
68479;SDS011;55469;48.934;12.050;2022-08-25T00:31:24;4.32;;;3.92;;
68479;SDS011;55469;48.934;12.050;2022-08-25T00:33:50;5.10;;;4.60;;
68479;SDS011;55469;48.934;12.050;2022-08-25T00:36:17;5.25;;;4.38;;
68479;SDS011;55469;48.934;12.050;2022-08-25T00:38:44;4.95;;;4.40;;
68479;SDS011;55469;48.934;12.050;2022-08-25T00:41:14;4.55;;;4.13;;
68479;SDS011;55469;48.934;12.050;2022-08-25T00:43:51;4.28;;;3.88;;
68479;SDS011;55469;48.934;12.050;2022-08-25T00:46:23;4.57;;;4.18;;
68479;SDS011;55469;48.934;12.050;2022-08-25T00:49:19;6.35;;;4.18;;
68479;SDS011;55469;48.934;12.050;2022-08-25T00:51:51;4.88;;;4.47;;
68479;SDS011;55469;48.934;12.050;2022-08-25T00:54:45;5.03;;;4.53;;
68479;SDS011;55469;48.934;12.050;2022-08-25T00:57:18;5.13;;;4.32;;
68479;SDS011;55469;48.934;12.050;2022-08-25T00:59:52;4.65;;;4.18;;
68479;SDS011;55469;48.934;12.050;2022-08-25T01:02:18;5.20;;;4.45;;
68479;SDS011;55469;48.934;12.050;2022-08-25T01:04:45;4.50;;;4.10;;
68479;SDS011;55469;48.934;12.050;2022-08-25T01:07:11;4.55;;;4.15;;
68479;SDS011;55469;48.934;12.050;2022-08-25T01:09:38;5.30;;;4.20;;
68479;SDS011;55469;48.934;12.050;2022-08-25T01:12:04;4.90;;;4.25;;
68479;SDS011;55469;48.934;12.050;2022-08-25T01:14:30;4.85;;;4.20;;
68479;SDS011;55469;48.934;12.050;2022-08-25T01:16:58;5.97;;;4.55;;
68479;SDS011;55469;48.934;12.050;2022-08-25T01:19:25;4.85;;;4.03;;
68479;SDS011;55469;48.934;12.050;2022-08-25T01:21:53;5.20;;;3.75;;
68479;SDS011;55469;48.934;12.050;2022-08-25T01:27:04;4.65;;;4.25;;
68479;SDS011;55469;48.934;12.050;2022-08-25T01:29:31;5.05;;;4.60;;
68479;SDS011;55469;48.934;12.050;2022-08-25T01:31:58;5.10;;;4.57;;
68479;SDS011;55469;48.934;12.050;2022-08-25T01:34:30;5.38;;;4.47;;
68479;SDS011;55469;48.934;12.050;2022-08-25T01:36:59;5.15;;;4.65;;
68479;SDS011;55469;48.934;12.050;2022-08-25T01:39:26;4.70;;;4.18;;
68479;SDS011;55469;48.934;12.050;2022-08-25T01:44:36;5.10;;;4.55;;
68479;SDS011;55469;48.934;12.050;2022-08-25T01:47:08;4.80;;;4.32;;
68479;SDS011;55469;48.934;12.050;2022-08-25T01:49:34;5.53;;;4.38;;
68479;SDS011;55469;48.934;12.050;2022-08-25T01:52:11;4.85;;;4.28;;
68479;SDS011;55469;48.934;12.050;2022-08-25T01:54:43;4.63;;;4.05;;
68479;SDS011;55469;48.934;12.050;2022-08-25T01:57:09;4.72;;;4.30;;
68479;SDS011;55469;48.934;12.050;2022-08-25T01:59:35;4.47;;;3.90;;
68479;SDS011;55469;48.934;12.050;2022-08-25T02:02:01;5.70;;;4.65;;
68479;SDS011;55469;48.934;12.050;2022-08-25T02:04:27;4.68;;;4.18;;
68479;SDS011;55469;48.934;12.050;2022-08-25T02:06:56;5.65;;;4.35;;
68479;SDS011;55469;48.934;12.050;2022-08-25T02:09:23;5.18;;;4.40;;
68479;SDS011;55469;48.934;12.050;2022-08-25T02:11:49;4.72;;;4.30;;
68479;SDS011;55469;48.934;12.050;2022-08-25T02:14:16;4.53;;;4.10;;
68479;SDS011;55469;48.934;12.050;2022-08-25T02:16:47;5.40;;;4.07;;
68479;SDS011;55469;48.934;12.050;2022-08-25T02:19:16;4.75;;;4.18;;
68479;SDS011;55469;48.934;12.050;2022-08-25T02:21:44;5.13;;;4.38;;
68479;SDS011;55469;48.934;12.050;2022-08-25T02:24:10;4.95;;;4.40;;
68479;SDS011;55469;48.934;12.050;2022-08-25T02:26:37;4.80;;;4.30;;
68479;SDS011;55469;48.934;12.050;2022-08-25T02:29:03;5.63;;;4.63;;
68479;SDS011;55469;48.934;12.050;2022-08-25T02:31:31;6.80;;;4.45;;
68479;SDS011;55469;48.934;12.050;2022-08-25T02:33:58;4.88;;;4.40;;
68479;SDS011;55469;48.934;12.050;2022-08-25T02:36:25;5.00;;;4.50;;
68479;SDS011;55469;48.934;12.050;2022-08-25T02:38:52;4.90;;;4.28;;
68479;SDS011;55469;48.934;12.050;2022-08-25T02:41:19;4.97;;;4.40;;
68479;SDS011;55469;48.934;12.050;2022-08-25T02:43:47;4.70;;;4.07;;
68479;SDS011;55469;48.934;12.050;2022-08-25T02:46:14;5.20;;;4.55;;
68479;SDS011;55469;48.934;12.050;2022-08-25T02:48:43;4.47;;;4.07;;
68479;SDS011;55469;48.934;12.050;2022-08-25T02:51:10;4.93;;;4.43;;
68479;SDS011;55469;48.934;12.050;2022-08-25T02:53:36;4.50;;;4.10;;
68479;SDS011;55469;48.934;12.050;2022-08-25T02:56:07;4.70;;;4.28;;
68479;SDS011;55469;48.934;12.050;2022-08-25T02:58:35;4.90;;;4.40;;
68479;SDS011;55469;48.934;12.050;2022-08-25T03:01:02;4.47;;;4.03;;
68479;SDS011;55469;48.934;12.050;2022-08-25T03:03:29;5.18;;;4.65;;
68479;SDS011;55469;48.934;12.050;2022-08-25T03:05:55;4.63;;;4.22;;
68479;SDS011;55469;48.934;12.050;2022-08-25T03:08:21;5.43;;;4.20;;
68479;SDS011;55469;48.934;12.050;2022-08-25T03:10:47;4.88;;;4.38;;
68479;SDS011;55469;48.934;12.050;2022-08-25T03:13:13;4.63;;;4.20;;
68479;SDS011;55469;48.934;12.050;2022-08-25T03:15:40;4.90;;;4.10;;
68479;SDS011;55469;48.934;12.050;2022-08-25T03:18:06;5.20;;;4.70;;
68479;SDS011;55469;48.934;12.050;2022-08-25T03:20:32;4.80;;;4.30;;
68479;SDS011;55469;48.934;12.050;2022-08-25T03:22:59;5.13;;;4.63;;
68479;SDS011;55469;48.934;12.050;2022-08-25T03:25:27;5.00;;;4.50;;
68479;SDS011;55469;48.934;12.050;2022-08-25T03:28:29;6.00;;;4.05;;
68479;SDS011;55469;48.934;12.050;2022-08-25T03:30:57;4.75;;;4.35;;
68479;SDS011;55469;48.934;12.050;2022-08-25T03:33:24;4.95;;;4.35;;
68479;SDS011;55469;48.934;12.050;2022-08-25T03:35:54;5.10;;;4.60;;
68479;SDS011;55469;48.934;12.050;2022-08-25T03:38:21;5.43;;;4.68;;
68479;SDS011;55469;48.934;12.050;2022-08-25T03:40:49;4.78;;;4.20;;
68479;SDS011;55469;48.934;12.050;2022-08-25T03:43:15;5.30;;;4.75;;
68479;SDS011;55469;48.934;12.050;2022-08-25T03:45:42;4.70;;;4.20;;
68479;SDS011;55469;48.934;12.050;2022-08-25T03:48:10;6.35;;;4.72;;
68479;SDS011;55469;48.934;12.050;2022-08-25T03:50:36;5.15;;;4.50;;
68479;SDS011;55469;48.934;12.050;2022-08-25T03:53:08;5.20;;;4.68;;
68479;SDS011;55469;48.934;12.050;2022-08-25T03:55:34;4.53;;;4.10;;
68479;SDS011;55469;48.934;12.050;2022-08-25T03:57:59;5.05;;;4.53;;
68479;SDS011;55469;48.934;12.050;2022-08-25T04:00:25;5.15;;;4.38;;
68479;SDS011;55469;48.934;12.050;2022-08-25T04:02:51;5.68;;;4.47;;
68479;SDS011;55469;48.934;12.050;2022-08-25T04:05:16;5.93;;;4.68;;
68479;SDS011;55469;48.934;12.050;2022-08-25T04:07:44;6.28;;;4.75;;
68479;SDS011;55469;48.934;12.050;2022-08-25T04:10:10;5.03;;;4.53;;
68479;SDS011;55469;48.934;12.050;2022-08-25T04:12:36;4.90;;;4.40;;
68479;SDS011;55469;48.934;12.050;2022-08-25T04:15:03;4.65;;;4.18;;
68479;SDS011;55469;48.934;12.050;2022-08-25T04:17:31;5.93;;;4.40;;
68479;SDS011;55469;48.934;12.050;2022-08-25T04:19:58;5.40;;;4.60;;
68479;SDS011;55469;48.934;12.050;2022-08-25T04:22:25;5.18;;;4.68;;
68479;SDS011;55469;48.934;12.050;2022-08-25T04:24:51;5.03;;;4.53;;
68479;SDS011;55469;48.934;12.050;2022-08-25T04:27:17;5.63;;;4.68;;
68479;SDS011;55469;48.934;12.050;2022-08-25T04:29:43;5.25;;;4.75;;
68479;SDS011;55469;48.934;12.050;2022-08-25T04:32:12;7.35;;;4.82;;
68479;SDS011;55469;48.934;12.050;2022-08-25T04:34:37;5.20;;;4.68;;
68479;SDS011;55469;48.934;12.050;2022-08-25T04:37:03;4.90;;;4.35;;
68479;SDS011;55469;48.934;12.050;2022-08-25T04:39:30;5.28;;;4.15;;
68479;SDS011;55469;48.934;12.050;2022-08-25T04:41:56;5.20;;;4.28;;
68479;SDS011;55469;48.934;12.050;2022-08-25T04:44:24;5.43;;;4.38;;
68479;SDS011;55469;48.934;12.050;2022-08-25T04:46:50;5.03;;;4.47;;
68479;SDS011;55469;48.934;12.050;2022-08-25T04:49:16;5.85;;;4.45;;
68479;SDS011;55469;48.934;12.050;2022-08-25T04:51:41;5.68;;;4.75;;
68479;SDS011;55469;48.934;12.050;2022-08-25T04:54:09;4.70;;;4.25;;
68479;SDS011;55469;48.934;12.050;2022-08-25T04:56:40;5.65;;;4.90;;
68479;SDS011;55469;48.934;12.050;2022-08-25T04:59:08;5.22;;;4.72;;
68479;SDS011;55469;48.934;12.050;2022-08-25T05:01:36;5.07;;;4.57;;
68479;SDS011;55469;48.934;12.050;2022-08-25T05:04:03;5.38;;;4.60;;
68479;SDS011;55469;48.934;12.050;2022-08-25T05:06:32;5.20;;;4.70;;
68479;SDS011;55469;48.934;12.050;2022-08-25T05:08:58;6.50;;;5.00;;
68479;SDS011;55469;48.934;12.050;2022-08-25T05:11:25;6.55;;;5.13;;
68479;SDS011;55469;48.934;12.050;2022-08-25T05:13:52;5.30;;;4.80;;
68479;SDS011;55469;48.934;12.050;2022-08-25T05:16:20;7.00;;;4.90;;
68479;SDS011;55469;48.934;12.050;2022-08-25T05:18:48;5.75;;;4.90;;
68479;SDS011;55469;48.934;12.050;2022-08-25T05:21:18;5.40;;;4.82;;
68479;SDS011;55469;48.934;12.050;2022-08-25T05:23:48;5.78;;;5.00;;
68479;SDS011;55469;48.934;12.050;2022-08-25T05:26:19;5.28;;;4.75;;
68479;SDS011;55469;48.934;12.050;2022-08-25T05:28:46;5.78;;;4.75;;
68479;SDS011;55469;48.934;12.050;2022-08-25T05:31:14;5.00;;;4.50;;
68479;SDS011;55469;48.934;12.050;2022-08-25T05:33:41;5.68;;;4.90;;
68479;SDS011;55469;48.934;12.050;2022-08-25T05:36:08;5.13;;;4.60;;
68479;SDS011;55469;48.934;12.050;2022-08-25T05:38:36;5.30;;;4.80;;
68479;SDS011;55469;48.934;12.050;2022-08-25T05:41:04;6.30;;;5.10;;
68479;SDS011;55469;48.934;12.050;2022-08-25T05:43:37;5.87;;;5.00;;
68479;SDS011;55469;48.934;12.050;2022-08-25T05:46:05;5.82;;;4.72;;
68479;SDS011;55469;48.934;12.050;2022-08-25T05:48:32;5.07;;;4.57;;
68479;SDS011;55469;48.934;12.050;2022-08-25T05:50:58;5.60;;;4.72;;
68479;SDS011;55469;48.934;12.050;2022-08-25T05:53:27;5.90;;;5.30;;
68479;SDS011;55469;48.934;12.050;2022-08-25T05:55:55;6.28;;;5.07;;
68479;SDS011;55469;48.934;12.050;2022-08-25T05:58:23;6.13;;;4.90;;
68479;SDS011;55469;48.934;12.050;2022-08-25T06:00:52;5.95;;;5.03;;
68479;SDS011;55469;48.934;12.050;2022-08-25T06:03:18;5.30;;;4.80;;
68479;SDS011;55469;48.934;12.050;2022-08-25T06:05:44;5.82;;;4.85;;
68479;SDS011;55469;48.934;12.050;2022-08-25T06:08:10;6.18;;;4.82;;
68479;SDS011;55469;48.934;12.050;2022-08-25T06:10:36;5.13;;;4.57;;
68479;SDS011;55469;48.934;12.050;2022-08-25T06:13:03;6.15;;;4.90;;
68479;SDS011;55469;48.934;12.050;2022-08-25T06:15:29;5.97;;;5.38;;
68479;SDS011;55469;48.934;12.050;2022-08-25T06:17:55;5.30;;;4.80;;
68479;SDS011;55469;48.934;12.050;2022-08-25T06:20:23;5.68;;;5.07;;
68479;SDS011;55469;48.934;12.050;2022-08-25T06:22:52;6.03;;;5.05;;
68479;SDS011;55469;48.934;12.050;2022-08-25T06:25:19;5.78;;;5.18;;
68479;SDS011;55469;48.934;12.050;2022-08-25T06:27:48;5.15;;;4.65;;
68479;SDS011;55469;48.934;12.050;2022-08-25T06:30:14;5.50;;;4.85;;
68479;SDS011;55469;48.934;12.050;2022-08-25T06:32:44;5.70;;;4.90;;
68479;SDS011;55469;48.934;12.050;2022-08-25T06:35:11;5.63;;;4.85;;
68479;SDS011;55469;48.934;12.050;2022-08-25T06:37:42;5.97;;;4.95;;
68479;SDS011;55469;48.934;12.050;2022-08-25T06:40:08;6.15;;;4.93;;
68479;SDS011;55469;48.934;12.050;2022-08-25T06:42:35;5.70;;;5.10;;
68479;SDS011;55469;48.934;12.050;2022-08-25T06:45:01;6.00;;;5.20;;
68479;SDS011;55469;48.934;12.050;2022-08-25T06:47:28;6.20;;;5.15;;
68479;SDS011;55469;48.934;12.050;2022-08-25T06:49:53;6.72;;;5.00;;
68479;SDS011;55469;48.934;12.050;2022-08-25T06:52:19;6.28;;;5.18;;
68479;SDS011;55469;48.934;12.050;2022-08-25T06:54:45;5.40;;;4.90;;
68479;SDS011;55469;48.934;12.050;2022-08-25T06:57:11;5.47;;;4.95;;
68479;SDS011;55469;48.934;12.050;2022-08-25T06:59:37;6.00;;;4.80;;
68479;SDS011;55469;48.934;12.050;2022-08-25T07:02:04;5.25;;;4.68;;
68479;SDS011;55469;48.934;12.050;2022-08-25T07:04:30;5.95;;;5.20;;
68479;SDS011;55469;48.934;12.050;2022-08-25T07:06:58;6.20;;;4.90;;
68479;SDS011;55469;48.934;12.050;2022-08-25T07:09:24;6.25;;;5.28;;
68479;SDS011;55469;48.934;12.050;2022-08-25T07:11:50;5.60;;;5.00;;
68479;SDS011;55469;48.934;12.050;2022-08-25T07:14:16;5.32;;;4.47;;
68479;SDS011;55469;48.934;12.050;2022-08-25T07:16:42;5.60;;;4.80;;
68479;SDS011;55469;48.934;12.050;2022-08-25T07:19:09;5.20;;;4.70;;
68479;SDS011;55469;48.934;12.050;2022-08-25T07:21:36;5.20;;;4.70;;
68479;SDS011;55469;48.934;12.050;2022-08-25T07:24:06;6.07;;;4.63;;
68479;SDS011;55469;48.934;12.050;2022-08-25T07:26:35;5.68;;;4.90;;
68479;SDS011;55469;48.934;12.050;2022-08-25T07:29:06;5.18;;;4.68;;
68479;SDS011;55469;48.934;12.050;2022-08-25T07:31:45;6.55;;;5.03;;
68479;SDS011;55469;48.934;12.050;2022-08-25T07:34:11;5.65;;;4.60;;
68479;SDS011;55469;48.934;12.050;2022-08-25T07:36:57;5.28;;;4.78;;
68479;SDS011;55469;48.934;12.050;2022-08-25T07:39:23;5.38;;;4.85;;
68479;SDS011;55469;48.934;12.050;2022-08-25T07:41:51;5.07;;;4.57;;
68479;SDS011;55469;48.934;12.050;2022-08-25T07:44:17;5.63;;;4.95;;
68479;SDS011;55469;48.934;12.050;2022-08-25T07:46:43;5.18;;;4.68;;
68479;SDS011;55469;48.934;12.050;2022-08-25T07:49:09;4.90;;;4.40;;
68479;SDS011;55469;48.934;12.050;2022-08-25T07:51:36;5.25;;;4.75;;
68479;SDS011;55469;48.934;12.050;2022-08-25T07:54:03;4.78;;;4.30;;
68479;SDS011;55469;48.934;12.050;2022-08-25T07:56:29;4.68;;;4.28;;
68479;SDS011;55469;48.934;12.050;2022-08-25T07:58:55;5.45;;;4.70;;
68479;SDS011;55469;48.934;12.050;2022-08-25T08:01:22;5.38;;;4.60;;
68479;SDS011;55469;48.934;12.050;2022-08-25T08:03:49;4.60;;;4.18;;
68479;SDS011;55469;48.934;12.050;2022-08-25T08:06:17;5.07;;;4.57;;
68479;SDS011;55469;48.934;12.050;2022-08-25T08:08:46;5.80;;;4.68;;
68479;SDS011;55469;48.934;12.050;2022-08-25T08:11:18;5.55;;;4.78;;
68479;SDS011;55469;48.934;12.050;2022-08-25T08:13:47;6.53;;;5.05;;
68479;SDS011;55469;48.934;12.050;2022-08-25T08:16:15;6.20;;;4.57;;
68479;SDS011;55469;48.934;12.050;2022-08-25T08:18:43;5.65;;;4.63;;
68479;SDS011;55469;48.934;12.050;2022-08-25T08:21:13;6.57;;;4.75;;
68479;SDS011;55469;48.934;12.050;2022-08-25T08:23:43;5.90;;;4.80;;
68479;SDS011;55469;48.934;12.050;2022-08-25T08:26:09;5.78;;;5.10;;
68479;SDS011;55469;48.934;12.050;2022-08-25T08:28:35;6.22;;;4.85;;
68479;SDS011;55469;48.934;12.050;2022-08-25T08:31:01;8.10;;;5.30;;
68479;SDS011;55469;48.934;12.050;2022-08-25T08:33:28;6.70;;;5.07;;
68479;SDS011;55469;48.934;12.050;2022-08-25T08:35:56;5.65;;;4.97;;
68479;SDS011;55469;48.934;12.050;2022-08-25T08:38:24;6.13;;;5.30;;
68479;SDS011;55469;48.934;12.050;2022-08-25T08:40:57;6.38;;;5.10;;
68479;SDS011;55469;48.934;12.050;2022-08-25T08:44:01;6.80;;;5.28;;
68479;SDS011;55469;48.934;12.050;2022-08-25T08:52:36;7.22;;;5.22;;
68479;SDS011;55469;48.934;12.050;2022-08-25T08:55:10;7.70;;;5.75;;
68479;SDS011;55469;48.934;12.050;2022-08-25T08:57:56;7.32;;;5.13;;
68479;SDS011;55469;48.934;12.050;2022-08-25T09:00:24;7.38;;;5.25;;
68479;SDS011;55469;48.934;12.050;2022-08-25T09:02:53;7.90;;;5.40;;
68479;SDS011;55469;48.934;12.050;2022-08-25T09:05:47;6.70;;;5.95;;
68479;SDS011;55469;48.934;12.050;2022-08-25T09:08:15;10.13;;;5.43;;
68479;SDS011;55469;48.934;12.050;2022-08-25T09:16:41;7.03;;;5.55;;
68479;SDS011;55469;48.934;12.050;2022-08-25T09:19:43;8.40;;;6.00;;
68479;SDS011;55469;48.934;12.050;2022-08-25T09:33:24;9.00;;;5.82;;
68479;SDS011;55469;48.934;12.050;2022-08-25T09:35:53;8.07;;;5.75;;
68479;SDS011;55469;48.934;12.050;2022-08-25T09:38:22;10.07;;;5.72;;
68479;SDS011;55469;48.934;12.050;2022-08-25T09:40:52;8.77;;;6.18;;
68479;SDS011;55469;48.934;12.050;2022-08-25T09:46:25;10.23;;;6.30;;
68479;SDS011;55469;48.934;12.050;2022-08-25T09:48:54;7.90;;;5.90;;
68479;SDS011;55469;48.934;12.050;2022-08-25T09:51:34;8.98;;;6.00;;
68479;SDS011;55469;48.934;12.050;2022-08-25T09:56:49;9.40;;;6.20;;
68479;SDS011;55469;48.934;12.050;2022-08-25T09:59:22;11.48;;;6.10;;
68479;SDS011;55469;48.934;12.050;2022-08-25T10:01:59;9.20;;;6.35;;
68479;SDS011;55469;48.934;12.050;2022-08-25T10:04:35;9.45;;;6.13;;
68479;SDS011;55469;48.934;12.050;2022-08-25T10:07:04;10.00;;;6.35;;
68479;SDS011;55469;48.934;12.050;2022-08-25T10:09:53;8.60;;;6.40;;
68479;SDS011;55469;48.934;12.050;2022-08-25T10:12:29;11.07;;;6.20;;
68479;SDS011;55469;48.934;12.050;2022-08-25T10:15:25;10.73;;;6.38;;
68479;SDS011;55469;48.934;12.050;2022-08-25T10:18:19;8.60;;;6.03;;
68479;SDS011;55469;48.934;12.050;2022-08-25T10:23:47;12.05;;;6.20;;
68479;SDS011;55469;48.934;12.050;2022-08-25T10:31:58;9.70;;;6.00;;
68479;SDS011;55469;48.934;12.050;2022-08-25T10:34:58;9.38;;;6.10;;
68479;SDS011;55469;48.934;12.050;2022-08-25T10:47:07;10.63;;;6.13;;
68479;SDS011;55469;48.934;12.050;2022-08-25T10:49:41;8.43;;;5.90;;
68479;SDS011;55469;48.934;12.050;2022-08-25T10:52:20;10.38;;;6.60;;
68479;SDS011;55469;48.934;12.050;2022-08-25T10:58:47;9.80;;;6.57;;
68479;SDS011;55469;48.934;12.050;2022-08-25T11:00:54;8.60;;;6.13;;
68479;SDS011;55469;48.934;12.050;2022-08-25T11:03:50;9.70;;;6.47;;
68479;SDS011;55469;48.934;12.050;2022-08-25T11:06:24;8.88;;;6.15;;
68479;SDS011;55469;48.934;12.050;2022-08-25T11:09:20;8.85;;;5.93;;
68479;SDS011;55469;48.934;12.050;2022-08-25T11:12:27;7.93;;;5.78;;
68479;SDS011;55469;48.934;12.050;2022-08-25T11:15:18;10.95;;;6.47;;
68479;SDS011;55469;48.934;12.050;2022-08-25T11:23:18;12.30;;;6.30;;
68479;SDS011;55469;48.934;12.050;2022-08-25T11:25:56;10.70;;;6.47;;
68479;SDS011;55469;48.934;12.050;2022-08-25T11:28:41;9.35;;;6.32;;
68479;SDS011;55469;48.934;12.050;2022-08-25T11:31:35;7.93;;;6.13;;
68479;SDS011;55469;48.934;12.050;2022-08-25T11:34:07;8.73;;;6.18;;
68479;SDS011;55469;48.934;12.050;2022-08-25T11:36:41;10.40;;;6.43;;
68479;SDS011;55469;48.934;12.050;2022-08-25T11:39:29;10.07;;;6.28;;
68479;SDS011;55469;48.934;12.050;2022-08-25T11:48:05;10.57;;;5.93;;
68479;SDS011;55469;48.934;12.050;2022-08-25T11:50:54;10.10;;;6.43;;
68479;SDS011;55469;48.934;12.050;2022-08-25T11:53:42;11.02;;;6.25;;
68479;SDS011;55469;48.934;12.050;2022-08-25T11:58:41;11.50;;;6.38;;
68479;SDS011;55469;48.934;12.050;2022-08-25T12:10:14;9.35;;;6.13;;
68479;SDS011;55469;48.934;12.050;2022-08-25T12:15:25;8.55;;;5.65;;
68479;SDS011;55469;48.934;12.050;2022-08-25T12:28:58;10.63;;;6.17;;
68479;SDS011;55469;48.934;12.050;2022-08-25T12:37:32;8.00;;;5.95;;
68479;SDS011;55469;48.934;12.050;2022-08-25T12:39:59;10.75;;;5.50;;
68479;SDS011;55469;48.934;12.050;2022-08-25T12:47:44;8.70;;;5.85;;
68479;SDS011;55469;48.934;12.050;2022-08-25T12:50:29;10.75;;;5.82;;
68479;SDS011;55469;48.934;12.050;2022-08-25T12:56:05;9.82;;;5.97;;
68479;SDS011;55469;48.934;12.050;2022-08-25T13:01:36;13.38;;;5.82;;
68479;SDS011;55469;48.934;12.050;2022-08-25T13:15:24;9.55;;;6.15;;
68479;SDS011;55469;48.934;12.050;2022-08-25T13:18:12;9.02;;;5.78;;
68479;SDS011;55469;48.934;12.050;2022-08-25T13:20:45;8.48;;;5.88;;
68479;SDS011;55469;48.934;12.050;2022-08-25T13:23:15;8.23;;;5.88;;
68479;SDS011;55469;48.934;12.050;2022-08-25T13:25:48;9.00;;;6.18;;
68479;SDS011;55469;48.934;12.050;2022-08-25T13:28:19;8.80;;;5.85;;
68479;SDS011;55469;48.934;12.050;2022-08-25T13:30:58;10.05;;;5.78;;
68479;SDS011;55469;48.934;12.050;2022-08-25T13:33:49;9.68;;;6.15;;
68479;SDS011;55469;48.934;12.050;2022-08-25T13:36:28;10.43;;;5.93;;
68479;SDS011;55469;48.934;12.050;2022-08-25T13:39:25;7.95;;;6.00;;
68479;SDS011;55469;48.934;12.050;2022-08-25T13:41:57;9.40;;;6.00;;
68479;SDS011;55469;48.934;12.050;2022-08-25T13:44:25;10.15;;;5.97;;
68479;SDS011;55469;48.934;12.050;2022-08-25T13:47:07;9.93;;;5.93;;
68479;SDS011;55469;48.934;12.050;2022-08-25T13:49:36;9.13;;;5.78;;
68479;SDS011;55469;48.934;12.050;2022-08-25T13:52:04;10.68;;;6.20;;
68479;SDS011;55469;48.934;12.050;2022-08-25T13:54:35;10.57;;;5.90;;
68479;SDS011;55469;48.934;12.050;2022-08-25T13:57:05;9.95;;;5.88;;
68479;SDS011;55469;48.934;12.050;2022-08-25T13:59:38;10.50;;;6.00;;
68479;SDS011;55469;48.934;12.050;2022-08-25T14:02:07;9.88;;;5.93;;
68479;SDS011;55469;48.934;12.050;2022-08-25T14:13:05;10.57;;;6.03;;
68479;SDS011;55469;48.934;12.050;2022-08-25T14:15:40;9.48;;;5.70;;
68479;SDS011;55469;48.934;12.050;2022-08-25T14:18:13;10.05;;;5.85;;
68479;SDS011;55469;48.934;12.050;2022-08-25T14:20:47;9.07;;;5.78;;
68479;SDS011;55469;48.934;12.050;2022-08-25T14:23:23;9.35;;;5.80;;
68479;SDS011;55469;48.934;12.050;2022-08-25T14:25:55;8.05;;;5.90;;
68479;SDS011;55469;48.934;12.050;2022-08-25T14:28:23;9.45;;;5.38;;
68479;SDS011;55469;48.934;12.050;2022-08-25T14:31:06;9.63;;;5.97;;
68479;SDS011;55469;48.934;12.050;2022-08-25T14:36:23;8.52;;;5.60;;
68479;SDS011;55469;48.934;12.050;2022-08-25T14:38:50;8.52;;;5.78;;
68479;SDS011;55469;48.934;12.050;2022-08-25T14:41:18;9.80;;;6.10;;
68479;SDS011;55469;48.934;12.050;2022-08-25T14:43:44;9.45;;;5.65;;
68479;SDS011;55469;48.934;12.050;2022-08-25T14:46:13;10.18;;;5.63;;
68479;SDS011;55469;48.934;12.050;2022-08-25T14:48:46;9.35;;;5.72;;
68479;SDS011;55469;48.934;12.050;2022-08-25T14:51:18;7.28;;;5.55;;
68479;SDS011;55469;48.934;12.050;2022-08-25T14:53:44;9.07;;;5.60;;
68479;SDS011;55469;48.934;12.050;2022-08-25T14:56:10;11.18;;;6.40;;
68479;SDS011;55469;48.934;12.050;2022-08-25T14:58:36;9.13;;;6.40;;
68479;SDS011;55469;48.934;12.050;2022-08-25T15:01:03;8.63;;;6.20;;
68479;SDS011;55469;48.934;12.050;2022-08-25T15:03:31;9.73;;;5.85;;
68479;SDS011;55469;48.934;12.050;2022-08-25T15:06:02;8.70;;;5.80;;
68479;SDS011;55469;48.934;12.050;2022-08-25T15:08:29;10.60;;;5.90;;
68479;SDS011;55469;48.934;12.050;2022-08-25T15:11:14;12.10;;;5.57;;
68479;SDS011;55469;48.934;12.050;2022-08-25T15:13:40;10.18;;;6.03;;
68479;SDS011;55469;48.934;12.050;2022-08-25T15:16:08;8.38;;;5.53;;
68479;SDS011;55469;48.934;12.050;2022-08-25T15:18:34;10.85;;;6.05;;
68479;SDS011;55469;48.934;12.050;2022-08-25T15:21:00;8.27;;;5.65;;
68479;SDS011;55469;48.934;12.050;2022-08-25T15:23:26;9.35;;;5.70;;
68479;SDS011;55469;48.934;12.050;2022-08-25T15:25:53;12.95;;;6.25;;
68479;SDS011;55469;48.934;12.050;2022-08-25T15:28:20;7.45;;;5.65;;
68479;SDS011;55469;48.934;12.050;2022-08-25T15:30:46;11.73;;;5.97;;
68479;SDS011;55469;48.934;12.050;2022-08-25T15:33:15;10.05;;;5.72;;
68479;SDS011;55469;48.934;12.050;2022-08-25T15:35:41;8.75;;;5.60;;
68479;SDS011;55469;48.934;12.050;2022-08-25T15:38:07;7.90;;;5.68;;
68479;SDS011;55469;48.934;12.050;2022-08-25T15:40:33;13.02;;;6.10;;
68479;SDS011;55469;48.934;12.050;2022-08-25T15:43:01;10.07;;;5.80;;
68479;SDS011;55469;48.934;12.050;2022-08-25T15:45:30;7.05;;;5.55;;
68479;SDS011;55469;48.934;12.050;2022-08-25T15:47:56;9.43;;;5.72;;
68479;SDS011;55469;48.934;12.050;2022-08-25T15:50:22;9.30;;;6.03;;
68479;SDS011;55469;48.934;12.050;2022-08-25T15:52:50;8.77;;;5.53;;
68479;SDS011;55469;48.934;12.050;2022-08-25T15:55:16;9.35;;;5.47;;
68479;SDS011;55469;48.934;12.050;2022-08-25T15:57:42;8.60;;;5.63;;
68479;SDS011;55469;48.934;12.050;2022-08-25T16:00:08;9.13;;;5.47;;
68479;SDS011;55469;48.934;12.050;2022-08-25T16:02:36;10.07;;;5.97;;
68479;SDS011;55469;48.934;12.050;2022-08-25T16:05:03;9.43;;;5.55;;
68479;SDS011;55469;48.934;12.050;2022-08-25T16:07:34;8.35;;;5.60;;
68479;SDS011;55469;48.934;12.050;2022-08-25T16:10:01;7.50;;;5.38;;
68479;SDS011;55469;48.934;12.050;2022-08-25T16:12:28;10.90;;;5.57;;
68479;SDS011;55469;48.934;12.050;2022-08-25T16:14:53;6.78;;;5.40;;
68479;SDS011;55469;48.934;12.050;2022-08-25T16:17:19;9.13;;;5.38;;
68479;SDS011;55469;48.934;12.050;2022-08-25T16:19:45;7.18;;;5.50;;
68479;SDS011;55469;48.934;12.050;2022-08-25T16:22:11;11.50;;;5.70;;
68479;SDS011;55469;48.934;12.050;2022-08-25T16:24:38;8.45;;;5.20;;
68479;SDS011;55469;48.934;12.050;2022-08-25T16:27:05;11.48;;;5.68;;
68479;SDS011;55469;48.934;12.050;2022-08-25T16:29:33;6.25;;;5.20;;
68479;SDS011;55469;48.934;12.050;2022-08-25T16:32:01;7.57;;;5.47;;
68479;SDS011;55469;48.934;12.050;2022-08-25T16:34:29;8.95;;;5.45;;
68479;SDS011;55469;48.934;12.050;2022-08-25T16:36:56;7.35;;;5.28;;
68479;SDS011;55469;48.934;12.050;2022-08-25T16:39:22;6.55;;;5.22;;
68479;SDS011;55469;48.934;12.050;2022-08-25T16:41:48;7.35;;;5.40;;
68479;SDS011;55469;48.934;12.050;2022-08-25T16:44:16;7.65;;;4.90;;
68479;SDS011;55469;48.934;12.050;2022-08-25T16:46:43;8.35;;;5.25;;
68479;SDS011;55469;48.934;12.050;2022-08-25T16:49:09;6.63;;;5.30;;
68479;SDS011;55469;48.934;12.050;2022-08-25T16:51:37;7.90;;;4.97;;
68479;SDS011;55469;48.934;12.050;2022-08-25T16:54:04;8.27;;;5.38;;
68479;SDS011;55469;48.934;12.050;2022-08-25T16:56:50;6.97;;;5.40;;
68479;SDS011;55469;48.934;12.050;2022-08-25T16:59:16;7.88;;;4.90;;
68479;SDS011;55469;48.934;12.050;2022-08-25T17:01:42;8.30;;;5.03;;
68479;SDS011;55469;48.934;12.050;2022-08-25T17:04:09;6.82;;;5.35;;